Time;durP1;ratioP1;P1;durP2;ratioP2;P2;SDS_P1;SDS_P2;PMS_P1;PMS_P2;Temp;Humidity;BMP_temperature;BMP_pressure;BME280_temperature;BME280_humidity;BME280_pressure;Samples;Min_cycle;Max_cycle;Signal;HPM_P1;HPM_P2
2023/12/21 00:00:56;;;;;;;0.30;0.30;;;10.50;99.90;;;;;;4962011;28;20204;-63
2023/12/21 00:03:23;;;;;;;0.15;0.10;;;10.40;99.90;;;;;;4963216;28;20230;-63
2023/12/21 00:05:49;;;;;;;0.68;0.30;;;10.40;99.90;;;;;;4978079;28;20183;-63
2023/12/21 00:08:14;;;;;;;0.75;0.20;;;10.40;99.90;;;;;;4975373;28;20180;-63
2023/12/21 00:10:45;;;;;;;0.32;0.20;;;10.50;99.90;;;;;;4973674;28;20184;-63
2023/12/21 00:13:10;;;;;;;0.10;0.10;;;10.50;99.90;;;;;;4967320;28;20175;-63
2023/12/21 00:15:36;;;;;;;0.22;0.20;;;10.50;99.90;;;;;;4976700;28;20471;-63
2023/12/21 00:18:04;;;;;;;0.20;0.20;;;10.50;99.90;;;;;;4975521;28;20208;-63
2023/12/21 00:20:31;;;;;;;0.25;0.20;;;10.50;99.90;;;;;;4979773;28;20223;-71
2023/12/21 00:22:57;;;;;;;0.20;0.20;;;10.50;99.90;;;;;;4981416;28;20283;-69
2023/12/21 00:25:23;;;;;;;0.47;0.22;;;10.60;99.90;;;;;;4976189;28;20215;-70
2023/12/21 00:27:48;;;;;;;0.20;0.20;;;10.50;99.90;;;;;;4976367;28;20266;-69
2023/12/21 00:30:17;;;;;;;0.40;0.30;;;10.50;99.90;;;;;;4969741;28;20196;-71
2023/12/21 00:32:45;;;;;;;0.10;0.10;;;10.50;99.90;;;;;;4976975;28;20176;-70
2023/12/21 00:35:10;;;;;;;0.20;0.10;;;10.60;99.90;;;;;;4973604;28;20183;-71
2023/12/21 00:37:41;;;;;;;0.13;0.13;;;10.60;99.90;;;;;;4975313;28;20172;-70
2023/12/21 00:40:07;;;;;;;0.15;0.10;;;10.70;99.90;;;;;;4965977;28;20181;-70
2023/12/21 00:42:33;;;;;;;0.20;0.20;;;10.70;99.90;;;;;;4967503;28;20192;-71
2023/12/21 00:44:59;;;;;;;0.10;0.10;;;10.70;99.90;;;;;;4974355;28;20206;-71
2023/12/21 00:47:24;;;;;;;0.40;0.20;;;10.70;99.90;;;;;;4963283;28;20260;-72
2023/12/21 00:49:50;;;;;;;0.10;0.10;;;10.80;99.90;;;;;;4957551;28;20207;-72
2023/12/21 00:52:18;;;;;;;0.93;0.20;;;10.80;99.90;;;;;;4959781;28;20184;-72
2023/12/21 00:54:43;;;;;;;0.35;0.17;;;10.80;99.90;;;;;;4972316;28;20192;-71
2023/12/21 00:57:12;;;;;;;0.10;0.10;;;10.90;99.90;;;;;;4974689;28;20196;-72
2023/12/21 00:59:37;;;;;;;0.13;0.13;;;10.90;99.90;;;;;;4969072;28;20181;-72
2023/12/21 01:02:03;;;;;;;0.10;0.10;;;10.90;99.90;;;;;;4959495;28;20196;-70
2023/12/21 01:04:29;;;;;;;0.30;0.20;;;10.90;99.90;;;;;;4959991;28;20206;-70
2023/12/21 01:06:54;;;;;;;0.00;0.00;;;10.80;99.90;;;;;;4977052;28;20196;-71
2023/12/21 01:09:22;;;;;;;0.65;0.20;;;10.80;99.90;;;;;;4972938;28;20215;-72
2023/12/21 01:11:50;;;;;;;0.10;0.10;;;10.80;99.90;;;;;;4971245;28;20190;-71
2023/12/21 01:14:18;;;;;;;0.40;0.20;;;10.70;99.90;;;;;;4973485;28;20180;-72
2023/12/21 01:16:45;;;;;;;0.63;0.28;;;10.60;99.90;;;;;;5019238;23;20230;-72
2023/12/21 01:19:11;;;;;;;0.32;0.20;;;10.60;99.90;;;;;;4993464;28;20207;-72
2023/12/21 01:21:37;;;;;;;0.77;0.20;;;10.50;99.90;;;;;;5000785;28;20202;-72
2023/12/21 01:24:04;;;;;;;0.55;0.22;;;10.60;99.90;;;;;;4992966;28;20176;-72
2023/12/21 01:26:34;;;;;;;0.40;0.10;;;10.50;99.90;;;;;;4991469;28;20175;-72
2023/12/21 01:29:02;;;;;;;0.45;0.17;;;10.50;99.90;;;;;;4993704;28;20176;-72
2023/12/21 01:31:30;;;;;;;0.10;0.10;;;10.40;99.90;;;;;;4975710;28;20203;-70
2023/12/21 01:33:59;;;;;;;0.20;0.10;;;10.40;99.90;;;;;;4988634;28;20183;-71
2023/12/21 01:36:28;;;;;;;0.30;0.20;;;10.40;99.90;;;;;;4995278;28;20194;-72
2023/12/21 01:38:54;;;;;;;0.20;0.20;;;10.40;99.90;;;;;;4989946;28;20199;-72
2023/12/21 01:41:19;;;;;;;0.10;0.10;;;10.40;99.90;;;;;;4982290;28;20182;-71
2023/12/21 01:43:47;;;;;;;0.00;0.00;;;10.40;99.90;;;;;;4985685;28;20235;-71
2023/12/21 01:46:18;;;;;;;0.80;0.40;;;10.40;99.90;;;;;;4992578;28;20171;-71
2023/12/21 01:48:45;;;;;;;0.38;0.10;;;10.40;99.90;;;;;;4993457;28;20267;-71
2023/12/21 01:51:11;;;;;;;0.38;0.20;;;10.40;99.90;;;;;;5009153;28;20206;-71
2023/12/21 01:53:39;;;;;;;0.10;0.10;;;10.50;99.90;;;;;;5009505;28;20258;-71
2023/12/21 01:56:06;;;;;;;0.25;0.10;;;10.50;99.90;;;;;;5004845;28;20176;-68
2023/12/21 01:58:32;;;;;;;0.10;0.10;;;10.50;99.90;;;;;;4988196;28;20286;-69
2023/12/21 02:00:58;;;;;;;0.40;0.10;;;10.50;99.90;;;;;;4989678;28;20188;-70
2023/12/21 02:03:28;;;;;;;0.20;0.20;;;10.60;99.90;;;;;;4993066;28;20213;-71
2023/12/21 02:05:55;;;;;;;0.10;0.10;;;10.60;99.90;;;;;;4987209;28;20289;-71
2023/12/21 02:08:21;;;;;;;0.20;0.20;;;10.60;99.90;;;;;;4993521;28;20185;-71
2023/12/21 02:10:47;;;;;;;0.20;0.20;;;10.60;99.90;;;;;;4993156;28;20195;-70
2023/12/21 02:13:15;;;;;;;0.10;0.10;;;10.60;99.90;;;;;;4988647;28;20241;-71
2023/12/21 02:15:42;;;;;;;0.17;0.17;;;10.70;99.90;;;;;;4993228;28;20203;-71
2023/12/21 02:18:14;;;;;;;0.98;0.28;;;10.70;99.90;;;;;;4995663;28;20187;-70
2023/12/21 02:20:41;;;;;;;0.10;0.10;;;10.60;99.90;;;;;;4990837;28;20242;-72
2023/12/21 02:23:09;;;;;;;0.10;0.10;;;10.70;99.90;;;;;;4988465;28;20262;-70
2023/12/21 02:25:35;;;;;;;0.15;0.10;;;10.70;99.90;;;;;;4997202;28;20214;-71
2023/12/21 02:28:07;;;;;;;0.10;0.10;;;10.70;99.90;;;;;;5005643;28;20207;-71
2023/12/21 02:30:33;;;;;;;0.20;0.20;;;10.70;99.90;;;;;;5009853;28;20168;-70
2023/12/21 02:33:04;;;;;;;0.38;0.20;;;10.70;99.90;;;;;;5000728;28;20209;-70
2023/12/21 02:35:32;;;;;;;0.70;0.20;;;10.80;99.90;;;;;;4995395;28;20188;-71
2023/12/21 02:37:57;;;;;;;0.65;0.20;;;10.80;99.90;;;;;;4995520;28;20183;-71
2023/12/21 02:40:23;;;;;;;0.40;0.20;;;10.80;99.90;;;;;;4983387;28;20203;-72
2023/12/21 02:42:48;;;;;;;0.10;0.10;;;10.80;99.90;;;;;;4993495;28;20231;-71
2023/12/21 02:45:14;;;;;;;0.45;0.15;;;10.80;99.90;;;;;;4993114;28;20193;-70
2023/12/21 02:47:39;;;;;;;0.20;0.10;;;10.80;99.90;;;;;;4988244;28;20172;-71
2023/12/21 02:50:10;;;;;;;0.10;0.10;;;10.90;99.90;;;;;;4994089;28;20451;-70
2023/12/21 02:52:36;;;;;;;0.35;0.10;;;10.90;99.90;;;;;;5003956;28;20184;-70
2023/12/21 02:55:02;;;;;;;0.20;0.10;;;10.90;99.90;;;;;;4990241;28;20175;-70
2023/12/21 02:57:30;;;;;;;0.10;0.10;;;10.90;99.90;;;;;;4982064;28;21289;-71
2023/12/21 02:59:55;;;;;;;0.20;0.20;;;10.90;99.90;;;;;;4994013;28;20243;-70
2023/12/21 03:02:23;;;;;;;0.20;0.20;;;10.90;99.90;;;;;;5012569;28;20218;-71
2023/12/21 03:04:49;;;;;;;0.10;0.10;;;11.00;99.90;;;;;;4995528;28;20179;-71
2023/12/21 03:07:14;;;;;;;0.05;0.05;;;10.90;99.90;;;;;;5017277;28;20199;-71
2023/12/21 03:09:40;;;;;;;0.10;0.10;;;11.00;99.90;;;;;;4995521;28;20274;-70
2023/12/21 03:12:06;;;;;;;0.22;0.10;;;11.00;99.90;;;;;;5012266;28;20238;-71
2023/12/21 03:14:32;;;;;;;0.20;0.20;;;11.00;99.90;;;;;;5012791;28;20234;-71
2023/12/21 03:16:57;;;;;;;0.10;0.10;;;11.00;99.90;;;;;;4999987;28;20204;-71
2023/12/21 03:19:25;;;;;;;0.10;0.10;;;11.00;99.90;;;;;;5005808;28;20179;-72
2023/12/21 03:21:51;;;;;;;0.40;0.20;;;11.00;99.90;;;;;;4996644;28;20214;-70
2023/12/21 03:24:18;;;;;;;0.20;0.20;;;10.90;99.90;;;;;;4986159;28;20200;-70
2023/12/21 03:26:46;;;;;;;0.68;0.20;;;10.90;99.90;;;;;;4992045;28;20218;-70
2023/12/21 03:29:12;;;;;;;0.45;0.30;;;10.90;99.90;;;;;;4990874;28;20198;-70
2023/12/21 03:31:37;;;;;;;0.30;0.20;;;10.80;99.90;;;;;;5012537;28;20175;-72
2023/12/21 03:34:05;;;;;;;0.75;0.20;;;10.80;99.90;;;;;;4995650;28;20195;-70
2023/12/21 03:36:31;;;;;;;0.20;0.20;;;10.70;99.90;;;;;;4996502;28;20276;-72
2023/12/21 03:39:01;;;;;;;0.20;0.20;;;10.70;99.90;;;;;;4995867;28;20250;-72
2023/12/21 03:41:27;;;;;;;0.52;0.20;;;10.70;99.90;;;;;;4997207;28;20226;-71
2023/12/21 03:43:54;;;;;;;0.10;0.10;;;10.70;99.90;;;;;;4995335;28;20245;-71
2023/12/21 03:46:22;;;;;;;0.93;0.17;;;10.60;99.90;;;;;;5010691;28;20187;-71
2023/12/21 03:48:48;;;;;;;0.20;0.20;;;10.60;99.90;;;;;;4996328;28;20218;-69
2023/12/21 03:51:17;;;;;;;0.25;0.17;;;10.60;99.90;;;;;;4994259;28;20195;-71
2023/12/21 03:53:42;;;;;;;0.10;0.10;;;10.60;99.90;;;;;;4995869;28;20197;-71
2023/12/21 03:56:10;;;;;;;0.10;0.10;;;10.50;99.90;;;;;;4991292;28;20180;-69
2023/12/21 03:58:37;;;;;;;0.45;0.20;;;10.50;99.90;;;;;;4996184;28;20179;-72
2023/12/21 04:01:03;;;;;;;0.30;0.20;;;10.50;99.90;;;;;;4994479;28;20200;-72
2023/12/21 04:03:29;;;;;;;0.20;0.10;;;10.50;99.90;;;;;;5003821;28;20224;-71
2023/12/21 04:05:55;;;;;;;0.50;0.10;;;10.50;99.90;;;;;;4991124;28;20206;-72
2023/12/21 04:08:21;;;;;;;0.10;0.00;;;10.50;99.90;;;;;;4995325;28;20226;-72
2023/12/21 04:10:49;;;;;;;0.20;0.20;;;10.60;99.90;;;;;;4999333;28;20191;-71
2023/12/21 04:13:18;;;;;;;0.10;0.10;;;10.60;99.90;;;;;;5011692;28;20187;-70
2023/12/21 04:15:43;;;;;;;0.10;0.10;;;10.60;99.90;;;;;;4995773;28;20184;-72
2023/12/21 04:18:09;;;;;;;0.20;0.17;;;10.60;99.90;;;;;;5005269;28;20214;-70
2023/12/21 04:20:37;;;;;;;0.05;0.05;;;10.70;99.90;;;;;;4994320;28;20200;-71
2023/12/21 04:23:05;;;;;;;0.10;0.10;;;10.70;99.90;;;;;;5016533;28;20204;-71
2023/12/21 04:25:31;;;;;;;0.00;0.00;;;10.70;99.90;;;;;;5004199;28;20442;-69
2023/12/21 04:27:58;;;;;;;0.10;0.10;;;10.70;99.90;;;;;;4990123;28;20203;-70
2023/12/21 04:30:24;;;;;;;0.15;0.15;;;10.80;99.90;;;;;;4995237;28;20258;-71
2023/12/21 04:32:50;;;;;;;0.10;0.10;;;10.80;99.90;;;;;;4981484;28;20278;-71
2023/12/21 04:35:16;;;;;;;0.10;0.10;;;10.70;99.90;;;;;;4994711;28;20265;-71
2023/12/21 04:37:44;;;;;;;0.50;0.20;;;10.70;99.90;;;;;;4994748;28;20180;-71
2023/12/21 04:40:12;;;;;;;0.10;0.10;;;10.70;99.90;;;;;;5007355;28;20183;-70
2023/12/21 04:42:38;;;;;;;0.00;0.00;;;10.70;99.90;;;;;;5013136;28;20187;-69
2023/12/21 04:45:04;;;;;;;0.20;0.20;;;10.70;99.90;;;;;;5016274;28;20191;-71
2023/12/21 04:47:29;;;;;;;0.08;0.08;;;10.70;99.90;;;;;;4996661;28;20195;-69
2023/12/21 04:49:55;;;;;;;0.10;0.10;;;10.70;99.90;;;;;;5006911;28;20209;-70
2023/12/21 04:52:25;;;;;;;0.00;0.00;;;10.60;99.90;;;;;;5005973;28;20175;-71
2023/12/21 04:54:53;;;;;;;0.65;0.20;;;10.70;99.90;;;;;;4994971;28;20256;-71
2023/12/21 04:57:19;;;;;;;0.10;0.10;;;10.70;99.90;;;;;;4994889;28;20175;-71
2023/12/21 04:59:45;;;;;;;0.10;0.10;;;10.70;99.90;;;;;;4995993;28;20245;-70
2023/12/21 05:02:13;;;;;;;0.10;0.10;;;10.70;99.90;;;;;;4994938;28;20207;-71
2023/12/21 05:04:39;;;;;;;0.32;0.17;;;10.70;99.90;;;;;;5005464;28;20239;-69
2023/12/21 05:07:08;;;;;;;0.30;0.17;;;10.70;99.90;;;;;;4994409;28;20207;-72
2023/12/21 05:09:34;;;;;;;0.30;0.20;;;10.70;99.90;;;;;;4992120;28;20180;-70
2023/12/21 05:12:00;;;;;;;0.38;0.20;;;10.70;99.90;;;;;;4994308;28;20337;-71
2023/12/21 05:14:27;;;;;;;0.32;0.10;;;10.60;99.90;;;;;;5011681;28;20202;-70
2023/12/21 05:16:55;;;;;;;0.20;0.20;;;10.60;99.90;;;;;;4994033;28;20195;-70
2023/12/21 05:19:21;;;;;;;0.22;0.10;;;10.60;99.90;;;;;;4989532;28;20195;-71
2023/12/21 05:21:49;;;;;;;0.28;0.17;;;10.60;99.90;;;;;;4992765;28;20207;-71
2023/12/21 05:24:15;;;;;;;0.30;0.28;;;10.70;99.90;;;;;;5008721;28;20238;-70
2023/12/21 05:26:40;;;;;;;0.15;0.15;;;10.70;99.90;;;;;;5009023;28;20176;-70
2023/12/21 05:29:06;;;;;;;0.22;0.17;;;10.70;99.90;;;;;;5010844;28;20187;-70
2023/12/21 05:31:34;;;;;;;0.38;0.25;;;10.80;99.90;;;;;;5009810;28;20272;-71
2023/12/21 05:33:59;;;;;;;0.20;0.20;;;10.80;99.90;;;;;;5011069;28;20234;-69
2023/12/21 05:36:25;;;;;;;0.43;0.10;;;10.80;99.90;;;;;;4990894;28;20214;-70
2023/12/21 05:38:51;;;;;;;0.10;0.10;;;10.80;99.90;;;;;;4993582;28;20187;-71
2023/12/21 05:41:17;;;;;;;0.10;0.10;;;10.80;99.90;;;;;;4993368;28;20218;-71
2023/12/21 05:43:43;;;;;;;0.70;0.20;;;10.70;99.90;;;;;;4993773;28;20226;-71
2023/12/21 05:46:09;;;;;;;0.20;0.20;;;10.70;99.90;;;;;;4993552;28;20172;-71
2023/12/21 05:48:35;;;;;;;0.20;0.13;;;10.70;99.90;;;;;;4994515;28;20195;-72
2023/12/21 05:51:03;;;;;;;0.00;0.00;;;10.70;99.90;;;;;;4995021;28;20182;-71
2023/12/21 05:53:32;;;;;;;0.70;0.25;;;10.70;99.90;;;;;;4989559;28;20179;-71
2023/12/21 05:55:58;;;;;;;0.20;0.20;;;10.70;99.90;;;;;;4994214;28;20289;-70
2023/12/21 05:58:24;;;;;;;0.35;0.20;;;10.60;99.90;;;;;;5000055;28;20251;-72
2023/12/21 06:00:52;;;;;;;0.00;0.00;;;10.60;99.90;;;;;;5003094;28;20259;-72
2023/12/21 06:03:20;;;;;;;0.08;0.08;;;10.70;99.90;;;;;;4993190;28;20466;-72
2023/12/21 06:05:46;;;;;;;1.02;0.30;;;10.60;99.90;;;;;;4993996;28;20179;-72
2023/12/21 06:08:12;;;;;;;0.15;0.15;;;10.70;99.90;;;;;;4975597;28;20227;-71
2023/12/21 06:10:38;;;;;;;0.10;0.10;;;10.60;99.90;;;;;;5000101;28;20199;-73
2023/12/21 06:13:03;;;;;;;1.20;0.30;;;10.60;99.90;;;;;;4998450;28;20184;-71
2023/12/21 06:15:31;;;;;;;0.75;0.30;;;10.60;99.90;;;;;;4999905;28;20203;-70
2023/12/21 06:17:57;;;;;;;0.32;0.10;;;10.60;99.90;;;;;;5000574;28;20195;-73
2023/12/21 06:20:22;;;;;;;0.28;0.20;;;10.70;99.90;;;;;;4994328;28;20180;-73
2023/12/21 06:22:48;;;;;;;0.57;0.32;;;10.70;99.90;;;;;;5010944;28;20227;-70
2023/12/21 06:25:16;;;;;;;0.22;0.20;;;10.80;99.90;;;;;;4994657;28;20183;-72
2023/12/21 06:27:41;;;;;;;0.10;0.10;;;10.80;99.90;;;;;;5011329;28;20195;-71
2023/12/21 06:30:10;;;;;;;0.30;0.30;;;10.70;99.90;;;;;;4976855;28;20218;-70
2023/12/21 06:32:38;;;;;;;0.30;0.30;;;10.80;99.90;;;;;;4982424;28;20172;-69
2023/12/21 06:35:04;;;;;;;0.80;0.30;;;10.80;99.90;;;;;;4993922;28;20199;-68
2023/12/21 06:37:30;;;;;;;1.13;0.73;;;10.90;99.90;;;;;;4994337;28;20217;-69
2023/12/21 06:39:55;;;;;;;0.60;0.47;;;10.90;99.90;;;;;;4994136;28;20171;-68
2023/12/21 06:42:22;;;;;;;0.57;0.30;;;10.90;99.90;;;;;;4996932;28;20195;-70
2023/12/21 06:44:47;;;;;;;0.32;0.20;;;11.00;99.90;;;;;;5001356;28;20183;-70
2023/12/21 06:47:13;;;;;;;0.65;0.38;;;11.00;99.90;;;;;;5005953;28;20223;-68
2023/12/21 06:49:38;;;;;;;0.60;0.28;;;11.00;99.90;;;;;;5013016;28;20226;-67
2023/12/21 06:52:06;;;;;;;0.10;0.10;;;11.10;99.90;;;;;;5014037;28;20186;-66
2023/12/21 06:54:34;;;;;;;0.45;0.43;;;11.10;99.90;;;;;;5001160;28;20290;-69
2023/12/21 06:56:59;;;;;;;0.60;0.30;;;11.20;99.90;;;;;;4995281;28;20287;-69
2023/12/21 06:59:28;;;;;;;0.90;0.50;;;11.20;99.90;;;;;;4994164;28;20223;-68
2023/12/21 07:01:54;;;;;;;0.90;0.40;;;11.20;99.90;;;;;;4994038;28;20213;-69
2023/12/21 07:04:22;;;;;;;0.30;0.22;;;11.30;99.90;;;;;;4994168;28;20266;-70
2023/12/21 07:06:50;;;;;;;0.17;0.15;;;11.30;99.90;;;;;;4995708;28;20199;-70
2023/12/21 07:09:19;;;;;;;0.30;0.22;;;11.30;99.90;;;;;;4997421;28;20179;-68
2023/12/21 07:11:45;;;;;;;0.40;0.17;;;11.30;99.90;;;;;;4997175;28;20190;-70
2023/12/21 07:14:10;;;;;;;0.47;0.30;;;11.30;99.90;;;;;;4997167;28;20175;-70
2023/12/21 07:16:36;;;;;;;0.68;0.32;;;11.30;99.90;;;;;;4995139;28;20257;-70
2023/12/21 07:19:02;;;;;;;1.73;0.30;;;11.20;99.90;;;;;;5013383;28;20199;-70
2023/12/21 07:21:28;;;;;;;0.20;0.20;;;11.20;99.90;;;;;;5013244;28;20203;-70
2023/12/21 07:23:59;;;;;;;0.80;0.50;;;11.20;99.90;;;;;;4997185;28;20195;-68
2023/12/21 07:26:27;;;;;;;0.75;0.60;;;11.20;99.90;;;;;;4997069;28;20176;-69
2023/12/21 07:28:55;;;;;;;1.70;0.70;;;11.20;99.90;;;;;;4996937;28;20176;-70
2023/12/21 07:31:23;;;;;;;1.08;0.70;;;11.30;99.90;;;;;;4996876;28;20285;-71
2023/12/21 07:33:51;;;;;;;0.65;0.50;;;11.30;99.90;;;;;;5009971;28;20193;-71
2023/12/21 07:36:17;;;;;;;4.57;2.28;;;11.30;99.90;;;;;;5003426;28;20175;-70
2023/12/21 07:38:42;;;;;;;3.08;1.00;;;11.30;99.90;;;;;;4996475;28;20218;-71
2023/12/21 07:41:10;;;;;;;2.05;0.80;;;11.30;99.90;;;;;;4999720;28;20179;-69
2023/12/21 07:43:39;;;;;;;1.48;0.65;;;11.30;99.90;;;;;;4996558;28;20301;-71
2023/12/21 07:46:04;;;;;;;0.60;0.50;;;11.30;99.90;;;;;;4990456;28;20171;-71
2023/12/21 07:48:35;;;;;;;1.30;0.60;;;11.30;99.90;;;;;;4996342;28;20237;-70
2023/12/21 07:51:00;;;;;;;0.52;0.45;;;11.30;99.90;;;;;;4996556;28;20499;-71
2023/12/21 07:53:26;;;;;;;0.98;0.50;;;11.30;99.90;;;;;;4996588;28;20274;-70
2023/12/21 07:55:51;;;;;;;2.10;0.52;;;11.30;99.90;;;;;;4996435;28;20237;-71
2023/12/21 07:58:17;;;;;;;1.55;0.50;;;11.30;99.90;;;;;;4996533;28;20208;-70
2023/12/21 08:00:46;;;;;;;0.52;0.40;;;11.30;99.90;;;;;;4996399;28;20206;-70
2023/12/21 08:03:13;;;;;;;0.82;0.40;;;11.40;99.90;;;;;;5012543;28;20195;-71
2023/12/21 08:05:39;;;;;;;0.75;0.50;;;11.30;99.90;;;;;;4996373;28;20199;-71
2023/12/21 08:08:05;;;;;;;0.45;0.40;;;11.40;99.90;;;;;;4996217;28;20210;-70
2023/12/21 08:10:33;;;;;;;0.57;0.32;;;11.40;99.90;;;;;;4995990;28;20167;-71
2023/12/21 08:12:58;;;;;;;0.57;0.40;;;11.50;99.90;;;;;;4996115;28;20239;-71
2023/12/21 08:15:27;;;;;;;0.40;0.30;;;11.50;99.90;;;;;;4996082;28;20215;-71
2023/12/21 08:17:57;;;;;;;1.85;0.57;;;11.50;99.90;;;;;;4989890;28;20254;-70
2023/12/21 08:20:23;;;;;;;0.82;0.60;;;11.60;99.90;;;;;;4985421;28;20179;-72
2023/12/21 08:22:49;;;;;;;1.10;0.45;;;11.60;99.90;;;;;;4996043;28;20198;-71
2023/12/21 08:25:15;;;;;;;1.10;0.60;;;11.60;99.90;;;;;;4995915;28;20198;-70
2023/12/21 08:27:43;;;;;;;0.45;0.40;;;11.70;99.90;;;;;;4995985;28;20175;-70
2023/12/21 08:30:10;;;;;;;1.33;0.73;;;11.60;99.90;;;;;;5001401;28;20209;-70
2023/12/21 08:32:36;;;;;;;0.98;0.60;;;11.70;99.90;;;;;;4995858;28;20287;-67
2023/12/21 08:35:04;;;;;;;1.95;0.60;;;11.80;99.90;;;;;;4995369;28;20208;-69
2023/12/21 08:37:30;;;;;;;1.73;0.80;;;11.80;99.90;;;;;;4995566;28;20182;-70
2023/12/21 08:39:58;;;;;;;2.10;1.15;;;11.80;99.90;;;;;;4995420;28;20273;-71
2023/12/21 08:42:26;;;;;;;2.03;0.70;;;11.80;99.90;;;;;;4995388;28;20195;-73
2023/12/21 08:44:52;;;;;;;1.00;0.70;;;11.90;99.90;;;;;;5011709;28;20171;-74
2023/12/21 08:47:20;;;;;;;0.90;0.50;;;12.00;99.90;;;;;;4995202;28;20210;-69
2023/12/21 08:49:45;;;;;;;1.45;0.70;;;12.00;99.90;;;;;;4985653;28;20274;-71
2023/12/21 08:52:11;;;;;;;2.30;0.82;;;12.00;99.90;;;;;;4999499;28;20237;-72
2023/12/21 08:54:37;;;;;;;0.80;0.60;;;12.10;99.90;;;;;;5005485;28;20450;-71
2023/12/21 08:57:07;;;;;;;1.83;0.77;;;12.10;99.90;;;;;;4995456;28;20258;-73
2023/12/21 08:59:32;;;;;;;2.63;0.77;;;12.20;99.90;;;;;;4994996;28;20172;-72
2023/12/21 09:01:58;;;;;;;1.00;0.60;;;12.20;99.90;;;;;;4994711;28;20245;-70
2023/12/21 09:04:24;;;;;;;1.30;0.82;;;12.30;99.90;;;;;;4999701;28;20167;-70
2023/12/21 09:06:55;;;;;;;2.67;0.73;;;12.30;99.90;;;;;;4994857;28;20264;-71
2023/12/21 09:09:20;;;;;;;2.08;0.80;;;12.30;99.90;;;;;;4987874;28;20235;-71
2023/12/21 09:11:46;;;;;;;3.03;1.00;;;12.30;99.90;;;;;;4994950;28;20446;-71
2023/12/21 09:14:16;;;;;;;1.63;0.60;;;12.20;99.90;;;;;;4994864;28;20294;-74
2023/12/21 09:16:42;;;;;;;1.10;0.60;;;12.10;99.90;;;;;;4975279;28;20192;-72
2023/12/21 09:19:07;;;;;;;2.10;0.73;;;12.00;99.90;;;;;;5005299;28;20186;-78
2023/12/21 09:21:39;;;;;;;2.30;0.80;;;11.90;99.90;;;;;;5011395;28;20321;-73
2023/12/21 09:24:09;;;;;;;1.65;0.77;;;11.80;99.90;;;;;;4994750;28;20290;-72
2023/12/21 09:26:35;;;;;;;1.20;0.70;;;11.60;99.90;;;;;;4994566;28;20281;-73
2023/12/21 09:29:05;;;;;;;1.83;0.65;;;11.60;99.90;;;;;;4994272;28;20438;-74
2023/12/21 09:31:31;;;;;;;1.58;0.95;;;11.50;99.90;;;;;;4994669;28;20190;-75
2023/12/21 09:33:59;;;;;;;1.83;0.90;;;11.50;99.90;;;;;;4994276;28;20210;-74
2023/12/21 09:36:25;;;;;;;2.88;0.90;;;11.40;99.90;;;;;;5000834;28;20459;-77
2023/12/21 09:38:53;;;;;;;2.28;0.93;;;11.40;99.90;;;;;;4994607;28;20182;-72
2023/12/21 09:41:19;;;;;;;1.65;0.70;;;11.30;99.90;;;;;;4994388;28;20225;-78
2023/12/21 09:43:47;;;;;;;1.05;0.50;;;11.30;99.90;;;;;;4993638;28;20211;-76
2023/12/21 09:46:14;;;;;;;1.45;0.80;;;11.30;99.90;;;;;;4975454;28;20180;-73
2023/12/21 09:48:44;;;;;;;2.67;0.68;;;11.30;99.90;;;;;;4994303;28;20207;-77
2023/12/21 09:51:15;;;;;;;1.55;0.60;;;11.40;99.90;;;;;;5010694;28;20210;-73
2023/12/21 09:53:43;;;;;;;1.10;0.57;;;11.30;99.90;;;;;;4994192;28;20182;-77
2023/12/21 09:56:14;;;;;;;1.05;0.43;;;11.30;99.90;;;;;;5010734;28;20278;-74
2023/12/21 09:58:40;;;;;;;0.80;0.50;;;11.30;99.90;;;;;;4993567;28;20183;-72
2023/12/21 10:01:05;;;;;;;1.52;0.50;;;11.30;99.90;;;;;;4994006;28;20207;-73
2023/12/21 10:03:32;;;;;;;1.38;0.63;;;11.40;99.90;;;;;;4994346;28;20199;-75
2023/12/21 10:05:58;;;;;;;1.35;0.70;;;11.30;99.90;;;;;;4994178;28;20202;-78
2023/12/21 10:08:23;;;;;;;0.90;0.50;;;11.30;99.90;;;;;;4993802;28;20195;-75
2023/12/21 10:10:49;;;;;;;0.93;0.50;;;11.30;99.90;;;;;;4994092;28;20190;-78
2023/12/21 10:13:17;;;;;;;0.93;0.47;;;11.30;99.90;;;;;;4994294;28;20183;-73
2023/12/21 10:15:43;;;;;;;0.60;0.43;;;11.30;99.90;;;;;;4993775;28;20203;-78
2023/12/21 10:18:13;;;;;;;1.15;0.30;;;11.30;99.90;;;;;;4994277;28;20199;-78
2023/12/21 10:20:39;;;;;;;0.80;0.40;;;11.40;99.90;;;;;;4983774;28;20172;-75
2023/12/21 10:23:05;;;;;;;1.23;0.30;;;11.30;99.90;;;;;;4989517;28;20355;-80
2023/12/21 10:25:31;;;;;;;0.43;0.40;;;11.40;99.90;;;;;;4994789;28;20196;-77
2023/12/21 10:27:57;;;;;;;1.05;0.38;;;11.40;99.90;;;;;;4981143;28;20175;-78
2023/12/21 10:30:28;;;;;;;0.80;0.40;;;11.30;99.90;;;;;;4994126;28;20175;-83
2023/12/21 10:32:56;;;;;;;0.70;0.50;;;11.30;99.90;;;;;;4994170;28;20187;-83
2023/12/21 10:35:25;;;;;;;0.88;0.45;;;11.40;99.90;;;;;;4999937;28;20206;-84
2023/12/21 10:37:51;;;;;;;0.50;0.32;;;11.30;99.90;;;;;;4994049;28;20294;-81
2023/12/21 10:40:17;;;;;;;0.63;0.38;;;11.40;99.90;;;;;;4994072;28;20418;-80
2023/12/21 10:42:48;;;;;;;0.20;0.20;;;11.30;99.90;;;;;;4997563;28;20213;-81
2023/12/21 10:45:19;;;;;;;0.57;0.32;;;11.40;99.90;;;;;;4997820;28;20310;-78
2023/12/21 10:47:57;;;;;;;0.40;0.22;;;11.30;99.90;;;;;;5014142;28;20195;-86
2023/12/21 10:50:24;;;;;;;0.30;0.30;;;11.30;99.90;;;;;;4997209;28;20183;-78
2023/12/21 10:52:51;;;;;;;0.45;0.20;;;11.40;99.90;;;;;;4997138;28;20397;-79
2023/12/21 10:55:18;;;;;;;0.40;0.20;;;11.40;99.90;;;;;;4997498;28;20245;-84
2023/12/21 10:57:45;;;;;;;0.47;0.28;;;11.40;99.90;;;;;;4997380;28;20203;-82
2023/12/21 11:00:16;;;;;;;0.65;0.30;;;11.40;99.90;;;;;;4998005;28;20190;-83
2023/12/21 11:02:47;;;;;;;0.35;0.32;;;11.40;99.90;;;;;;4988531;28;20207;-84
2023/12/21 11:05:20;;;;;;;0.30;0.30;;;11.40;99.90;;;;;;4993209;28;20171;-77
2023/12/21 11:07:54;;;;;;;0.30;0.30;;;11.40;99.90;;;;;;4997260;28;20420;-84
2023/12/21 11:10:23;;;;;;;1.13;0.30;;;11.40;99.90;;;;;;4995651;28;20237;-79
2023/12/21 11:12:49;;;;;;;0.30;0.30;;;11.40;99.90;;;;;;4997152;28;20201;-78
2023/12/21 11:15:22;;;;;;;0.20;0.20;;;11.40;99.90;;;;;;4996998;28;20245;-78
2023/12/21 11:17:56;;;;;;;0.88;0.30;;;11.50;99.90;;;;;;4997059;28;20421;-76
2023/12/21 11:20:27;;;;;;;0.20;0.20;;;11.50;99.90;;;;;;5004828;28;20175;-81
2023/12/21 11:22:53;;;;;;;1.15;0.30;;;11.50;99.90;;;;;;5012330;28;20207;-82
2023/12/21 11:25:23;;;;;;;0.50;0.40;;;11.50;99.90;;;;;;4993868;28;20311;-75
2023/12/21 11:27:51;;;;;;;0.60;0.30;;;11.60;99.90;;;;;;4996885;28;20182;-78
2023/12/21 11:30:18;;;;;;;0.50;0.40;;;11.50;99.90;;;;;;4996407;28;20210;-75
2023/12/21 11:32:49;;;;;;;0.40;0.40;;;11.50;99.90;;;;;;4996532;28;20179;-79
2023/12/21 11:35:25;;;;;;;0.43;0.40;;;11.60;99.90;;;;;;5003329;28;20198;-80
2023/12/21 11:37:59;;;;;;;0.50;0.40;;;11.60;99.90;;;;;;4980104;28;20183;-82
2023/12/21 11:40:26;;;;;;;0.47;0.40;;;11.60;99.90;;;;;;5003826;28;20198;-84
2023/12/21 11:42:57;;;;;;;0.50;0.40;;;11.60;99.90;;;;;;4999379;28;20222;-82
2023/12/21 11:45:34;;;;;;;0.80;0.57;;;11.60;99.90;;;;;;4997335;28;20183;-79
2023/12/21 11:48:04;;;;;;;1.20;0.55;;;11.60;99.90;;;;;;4996761;28;20236;-82
2023/12/21 11:50:33;;;;;;;1.30;0.47;;;11.60;99.90;;;;;;4996470;28;20219;-81
2023/12/21 11:53:09;;;;;;;1.15;0.70;;;11.60;99.90;;;;;;4996226;28;20195;-82
2023/12/21 11:55:41;;;;;;;1.00;0.73;;;11.70;99.90;;;;;;4996268;28;20171;-83
2023/12/21 11:58:18;;;;;;;1.25;0.80;;;11.70;99.90;;;;;;4995800;28;20199;-78
2023/12/21 12:00:49;;;;;;;2.28;1.45;;;11.70;99.90;;;;;;4996214;28;20190;-77
2023/12/21 12:03:20;;;;;;;3.03;1.25;;;11.80;99.90;;;;;;4995975;28;20353;-79
2023/12/21 12:05:53;;;;;;;1.52;0.98;;;11.70;99.90;;;;;;4996359;28;20183;-82
2023/12/21 12:08:23;;;;;;;3.58;1.45;;;11.70;99.90;;;;;;4996218;28;20179;-78
2023/12/21 12:10:53;;;;;;;2.13;1.30;;;11.70;99.90;;;;;;4995967;28;20223;-86
2023/12/21 12:13:19;;;;;;;2.10;1.35;;;11.80;99.90;;;;;;4996557;28;20183;-83
2023/12/21 12:15:48;;;;;;;4.22;1.63;;;11.80;99.90;;;;;;4996589;28;20183;-79
2023/12/21 12:18:14;;;;;;;1.90;1.33;;;11.80;99.90;;;;;;4995857;28;20222;-81
2023/12/21 12:20:44;;;;;;;4.03;1.35;;;11.80;99.90;;;;;;4995786;28;20187;-76
2023/12/21 12:23:15;;;;;;;3.83;1.50;;;11.90;99.90;;;;;;4995597;28;20211;-76
2023/12/21 12:25:44;;;;;;;3.53;1.50;;;11.90;99.90;;;;;;4995783;28;20226;-78
2023/12/21 12:28:12;;;;;;;2.05;1.40;;;12.00;99.90;;;;;;4995764;28;20171;-73
2023/12/21 12:30:41;;;;;;;1.42;1.20;;;12.10;99.90;;;;;;4995572;28;20203;-76
2023/12/21 12:33:09;;;;;;;2.42;1.40;;;12.10;99.90;;;;;;4986213;28;20194;-73
2023/12/21 12:35:37;;;;;;;2.45;1.38;;;12.20;99.90;;;;;;4982101;28;20194;-74
2023/12/21 12:38:04;;;;;;;2.38;1.15;;;12.20;99.90;;;;;;4995587;28;20199;-76
2023/12/21 12:40:29;;;;;;;2.70;1.00;;;12.30;99.90;;;;;;4998591;28;20183;-75
2023/12/21 12:42:58;;;;;;;3.72;1.27;;;12.40;99.90;;;;;;4995398;28;20210;-72
2023/12/21 12:45:29;;;;;;;1.58;1.08;;;12.50;99.90;;;;;;4987654;28;20183;-73
2023/12/21 12:48:00;;;;;;;3.42;1.20;;;12.50;99.90;;;;;;4995124;28;20388;-74